Time;durP1;ratioP1;P1;durP2;ratioP2;P2;SDS_P1;SDS_P2;PMS_P1;PMS_P2;Temp;Humidity;BMP_temperature;BMP_pressure;BME280_temperature;BME280_humidity;BME280_pressure;Samples;Min_cycle;Max_cycle;Signal;HPM_P1;HPM_P2
2022/04/20 00:02:16;;;;;;;4.10;2.13;;;;;;;3.60;62.38;97056.56;5064392;28;20102;-64
2022/04/20 00:04:43;;;;;;;4.07;2.20;;;;;;;3.64;62.32;97059.59;5064918;28;20488;-64
2022/04/20 00:07:10;;;;;;;3.80;2.00;;;;;;;3.43;63.13;97050.84;5064542;28;20044;-64
2022/04/20 00:09:37;;;;;;;3.25;1.75;;;;;;;3.44;62.69;97049.84;5065039;28;20214;-64
2022/04/20 00:12:04;;;;;;;3.30;2.10;;;;;;;3.62;61.72;97048.31;5064808;28;20049;-64
2022/04/20 00:14:31;;;;;;;4.00;1.90;;;;;;;3.68;61.35;97047.44;5065158;28;20511;-64
2022/04/20 00:16:58;;;;;;;5.32;2.25;;;;;;;4.19;59.87;97036.78;5065267;28;20041;-64
2022/04/20 00:19:24;;;;;;;2.78;1.75;;;;;;;4.37;58.10;97030.63;5064251;28;20056;-64
2022/04/20 00:21:51;;;;;;;4.35;1.85;;;;;;;3.83;61.35;97041.78;5062630;28;20051;-64
2022/04/20 00:24:17;;;;;;;6.13;1.95;;;;;;;3.46;62.81;97038.94;5065499;28;20530;-64
2022/04/20 00:26:44;;;;;;;6.03;2.60;;;;;;;3.12;63.66;97044.41;5064402;28;20474;-64
2022/04/20 00:29:11;;;;;;;5.03;2.13;;;;;;;3.05;63.34;97044.44;5064150;28;20396;-63
2022/04/20 00:31:37;;;;;;;6.22;2.17;;;;;;;3.11;62.95;97042.78;5067658;28;20040;-64
2022/04/20 00:34:04;;;;;;;8.65;2.20;;;;;;;3.12;63.48;97039.06;5067940;28;20492;-64
2022/04/20 00:36:30;;;;;;;4.55;2.40;;;;;;;3.23;62.94;97034.91;5067404;28;20052;-64
2022/04/20 00:38:57;;;;;;;4.30;2.10;;;;;;;3.06;63.83;97039.94;5056911;28;20397;-64
2022/04/20 00:41:24;;;;;;;2.97;1.55;;;;;;;3.02;64.12;97038.72;5047531;28;20076;-64
2022/04/20 00:43:50;;;;;;;3.63;2.22;;;;;;;2.60;65.71;97042.53;5046912;28;20119;-64
2022/04/20 00:46:19;;;;;;;4.10;2.17;;;;;;;2.59;65.85;97043.56;5047498;28;20056;-64
2022/04/20 00:48:47;;;;;;;4.95;2.50;;;;;;;2.68;65.55;97039.63;5063163;28;20044;-64
2022/04/20 00:51:14;;;;;;;5.28;2.55;;;;;;;2.79;64.75;97042.69;5065610;28;20041;-64
2022/04/20 00:53:41;;;;;;;4.72;2.25;;;;;;;2.60;65.38;97037.19;5067001;28;20058;-64
2022/04/20 00:56:08;;;;;;;4.03;2.10;;;;;;;2.72;65.14;97037.34;5066193;28;20555;-64
2022/04/20 00:58:39;;;;;;;3.78;2.20;;;;;;;2.69;65.54;97035.91;5062861;28;20040;-64
2022/04/20 01:01:07;;;;;;;7.03;2.50;;;;;;;2.59;66.12;97039.00;5065814;28;20048;-64
2022/04/20 01:03:34;;;;;;;4.20;2.10;;;;;;;2.34;67.49;97030.84;5078888;28;20525;-64
2022/04/20 01:06:25;;;;;;;3.55;2.08;;;;;;;2.02;69.13;97033.31;5082675;28;21514;-64
2022/04/20 01:09:12;;;;;;;7.97;2.30;;;;;;;2.11;68.24;97037.44;5057912;28;20773;-64
2022/04/20 01:11:38;;;;;;;4.10;2.45;;;;;;;2.19;68.12;97031.06;5072334;28;20044;-64
2022/04/20 01:14:12;;;;;;;4.45;2.05;;;;;;;2.30;67.88;97025.09;5086850;28;20048;-64
2022/04/20 01:16:58;;;;;;;6.07;2.85;;;;;;;2.23;68.77;97031.47;5086271;28;20084;-64
2022/04/20 01:19:46;;;;;;;4.80;2.60;;;;;;;2.26;68.20;97033.72;5086534;28;20043;-64
2022/04/20 01:22:22;;;;;;;6.07;2.95;;;;;;;2.19;68.72;97034.56;5085898;28;20473;-64
2022/04/20 01:25:13;;;;;;;5.10;2.65;;;;;;;2.12;69.50;97032.91;5067819;28;20478;-64
2022/04/20 01:28:01;;;;;;;4.13;2.47;;;;;;;2.29;68.62;97036.78;5086207;28;20093;-64
2022/04/20 01:30:44;;;;;;;4.20;2.45;;;;;;;2.42;68.65;97027.13;5086547;28;20040;-64
2022/04/20 01:33:23;;;;;;;4.80;2.38;;;;;;;2.36;68.89;97036.78;5066435;28;20147;-63
2022/04/20 01:35:51;;;;;;;4.70;2.63;;;;;;;2.37;69.21;97033.13;5064759;28;20090;-63
2022/04/20 01:38:18;;;;;;;5.47;2.85;;;;;;;2.27;69.30;97041.53;5061908;28;20535;-63
2022/04/20 01:40:45;;;;;;;6.88;3.55;;;;;;;1.95;70.15;97041.31;5061336;28;20043;-63
2022/04/20 01:43:12;;;;;;;4.90;2.83;;;;;;;1.60;72.00;97042.31;5062562;28;20049;-63
2022/04/20 01:45:49;;;;;;;7.53;3.22;;;;;;;1.61;72.69;97038.63;5064824;28;20047;-63
2022/04/20 01:48:22;;;;;;;6.82;3.78;;;;;;;1.68;72.53;97038.63;5066736;28;20142;-63
2022/04/20 01:54:01;;;;;;;8.00;4.10;;;;;;;1.77;72.72;97037.41;5046415;28;20141;-63
2022/04/20 01:56:54;;;;;;;6.03;3.95;;;;;;;1.82;72.07;97034.16;5043876;28;20136;-63
2022/04/20 01:59:43;;;;;;;5.75;3.60;;;;;;;1.81;72.82;97040.50;5046603;28;20057;-63
2022/04/20 02:05:16;;;;;;;8.65;3.45;;;;;;;1.91;72.54;97043.59;5062344;28;20052;-63
2022/04/20 02:07:45;;;;;;;6.97;4.15;;;;;;;1.88;73.22;97041.31;5054613;28;20053;-63
2022/04/20 02:10:16;;;;;;;5.93;3.70;;;;;;;1.89;72.80;97037.66;5043903;28;20045;-63
2022/04/20 02:12:44;;;;;;;7.43;4.18;;;;;;;1.92;72.79;97047.91;5044385;28;20040;-63
2022/04/20 02:15:16;;;;;;;6.20;3.42;;;;;;;2.06;72.24;97043.41;5044360;28;20045;-64
2022/04/20 02:18:09;;;;;;;6.18;4.00;;;;;;;1.73;73.86;97052.19;5045689;28;20060;-63
2022/04/20 02:20:49;;;;;;;8.10;3.88;;;;;;;1.73;74.70;97046.03;5044938;28;20045;-63
2022/04/20 02:23:16;;;;;;;6.78;4.07;;;;;;;1.94;72.92;97045.03;5043152;28;20087;-63
2022/04/20 02:25:43;;;;;;;10.02;4.15;;;;;;;1.91;72.16;97034.75;5065171;28;20066;-63
2022/04/20 02:28:10;;;;;;;6.05;4.20;;;;;;;1.55;75.13;97042.13;5054780;28;20516;-63
2022/04/20 02:30:37;;;;;;;5.80;4.00;;;;;;;1.60;74.66;97045.00;5044844;28;20053;-63
2022/04/20 02:33:03;;;;;;;7.88;4.72;;;;;;;1.51;74.73;97046.22;5055912;28;20037;-64
2022/04/20 02:35:31;;;;;;;9.10;4.72;;;;;;;1.51;75.00;97043.53;5045211;28;20587;-63
2022/04/20 02:37:59;;;;;;;6.53;4.03;;;;;;;1.30;75.72;97040.00;5056476;28;20115;-64
2022/04/20 02:40:25;;;;;;;7.07;5.05;;;;;;;1.41;76.22;97043.94;5065779;28;20596;-63
2022/04/20 02:42:52;;;;;;;8.02;4.55;;;;;;;1.10;76.50;97046.06;5050360;28;20106;-63
2022/04/20 02:45:19;;;;;;;8.73;4.72;;;;;;;1.20;76.42;97044.88;5046044;28;20051;-63
2022/04/20 02:47:46;;;;;;;8.43;4.60;;;;;;;1.17;76.55;97048.75;5052169;28;20036;-64
2022/04/20 02:50:12;;;;;;;9.45;5.82;;;;;;;1.15;76.80;97037.50;5062789;28;20051;-63
2022/04/20 02:52:39;;;;;;;5.88;4.32;;;;;;;1.13;76.37;97042.19;5045978;28;20044;-63
2022/04/20 02:55:07;;;;;;;6.80;4.50;;;;;;;1.14;75.79;97034.00;5043762;28;20051;-63
2022/04/20 02:57:34;;;;;;;6.50;4.80;;;;;;;1.07;76.69;97035.78;5051653;28;20703;-63
2022/04/20 03:00:00;;;;;;;7.68;4.35;;;;;;;1.06;76.44;97034.16;5065499;28;20048;-63
2022/04/20 03:02:28;;;;;;;7.65;5.05;;;;;;;1.16;76.47;97041.78;5063338;28;20060;-64
2022/04/20 03:04:55;;;;;;;7.63;4.43;;;;;;;1.17;76.48;97046.94;5063514;28;20135;-64
2022/04/20 03:07:22;;;;;;;7.57;4.72;;;;;;;1.07;76.78;97045.66;5065476;28;20673;-64
2022/04/20 03:09:52;;;;;;;8.45;4.72;;;;;;;0.88;76.93;97037.34;5063339;28;20500;-64
2022/04/20 03:12:21;;;;;;;6.97;4.00;;;;;;;0.53;78.62;97035.56;5049257;28;20401;-63
2022/04/20 03:14:54;;;;;;;6.93;5.22;;;;;;;0.64;78.85;97039.50;5043124;28;20041;-63
2022/04/20 03:17:21;;;;;;;9.30;4.60;;;;;;;0.63;78.24;97044.00;5043184;28;20044;-63
2022/04/20 03:19:48;;;;;;;7.75;4.55;;;;;;;0.63;78.46;97041.34;5043409;28;20048;-63
2022/04/20 03:22:15;;;;;;;11.68;5.22;;;;;;;0.83;78.55;97040.63;5043996;28;20453;-63
2022/04/20 03:24:42;;;;;;;9.85;4.82;;;;;;;0.74;77.65;97052.47;5043427;28;20102;-64
2022/04/20 03:27:32;;;;;;;7.80;4.65;;;;;;;0.67;78.61;97051.63;5042642;28;20041;-63
2022/04/20 03:30:01;;;;;;;7.57;5.10;;;;;;;0.49;78.41;97066.25;5044606;28;20057;-63
2022/04/20 03:32:29;;;;;;;7.28;4.22;;;;;;;0.38;78.16;97060.44;5054585;28;20111;-63
2022/04/20 03:34:56;;;;;;;9.90;5.43;;;;;;;0.55;78.55;97056.66;5064158;28;20097;-63
2022/04/20 03:37:22;;;;;;;7.78;5.13;;;;;;;0.75;77.67;97059.44;5064129;28;20044;-63
2022/04/20 03:39:49;;;;;;;7.55;4.97;;;;;;;0.55;79.00;97054.81;5046081;28;20059;-63
2022/04/20 03:42:16;;;;;;;8.55;4.60;;;;;;;0.48;78.22;97059.28;5044871;28;20068;-63
2022/04/20 03:44:42;;;;;;;9.63;5.90;;;;;;;0.28;79.81;97051.97;5044530;28;20120;-63
2022/04/20 03:47:09;;;;;;;9.35;5.38;;;;;;;0.36;79.51;97045.69;5046575;28;20048;-63
2022/04/20 03:49:36;;;;;;;7.20;4.45;;;;;;;0.36;78.70;97051.84;5063839;28;20043;-63
2022/04/20 03:52:06;;;;;;;6.90;4.93;;;;;;;0.19;79.51;97045.16;5062748;28;20665;-63
2022/04/20 03:54:34;;;;;;;9.48;6.07;;;;;;;0.20;79.46;97054.78;5061944;28;20045;-63
2022/04/20 03:57:07;;;;;;;11.25;5.45;;;;;;;0.05;79.73;97054.88;5062181;28;20529;-63
2022/04/20 03:59:44;;;;;;;8.32;5.35;;;;;;;-0.05;80.29;97053.38;5045696;28;20570;-63
2022/04/20 04:02:13;;;;;;;9.85;5.32;;;;;;;-0.03;80.37;97053.19;5050445;28;20045;-63
2022/04/20 04:04:47;;;;;;;11.73;5.88;;;;;;;0.07;80.02;97050.19;5065038;28;20562;-63
2022/04/20 04:07:31;;;;;;;10.20;5.47;;;;;;;-0.17;80.07;97050.41;5065221;28;20526;-63
2022/04/20 04:09:59;;;;;;;7.93;5.38;;;;;;;-0.02;81.82;97052.16;5047310;28;20515;-63
2022/04/20 04:12:27;;;;;;;8.32;5.20;;;;;;;-0.02;79.71;97053.00;5047511;28;20044;-63
2022/04/20 04:14:57;;;;;;;8.35;5.30;;;;;;;-0.04;80.19;97054.19;5045816;28;20049;-63
2022/04/20 04:17:24;;;;;;;7.68;6.10;;;;;;;0.01;80.10;97056.28;5054644;28;20044;-63
2022/04/20 04:19:51;;;;;;;6.53;4.72;;;;;;;-0.09;79.41;97046.78;5064410;28;20051;-63
2022/04/20 04:22:18;;;;;;;7.78;4.82;;;;;;;-0.15;80.40;97051.03;5079057;28;20060;-63
2022/04/20 04:25:04;;;;;;;6.55;4.75;;;;;;;0.03;80.00;97044.41;5075154;28;20071;-64
2022/04/20 04:27:31;;;;;;;10.85;5.30;;;;;;;-0.02;79.97;97044.16;5076592;28;20048;-64
2022/04/20 04:29:58;;;;;;;9.48;5.55;;;;;;;-0.20;80.30;97048.13;5077969;28;20051;-65
2022/04/20 04:32:25;;;;;;;9.00;5.88;;;;;;;-0.18;80.57;97045.28;5073855;28;20090;-65
2022/04/20 04:34:53;;;;;;;7.30;4.82;;;;;;;-0.27;79.99;97053.38;5065262;28;20048;-65
2022/04/20 04:37:19;;;;;;;8.30;5.93;;;;;;;-0.24;80.88;97056.66;5061812;28;20051;-65
2022/04/20 04:39:52;;;;;;;9.32;5.57;;;;;;;-0.41;81.44;97048.94;5071935;28;20032;-65
2022/04/20 04:42:19;;;;;;;7.93;5.28;;;;;;;-0.51;82.10;97059.91;5084338;28;20048;-64
2022/04/20 04:44:45;;;;;;;7.90;5.30;;;;;;;-0.35;81.95;97053.50;5060782;28;20044;-65
2022/04/20 04:50:03;;;;;;;8.25;5.43;;;;;;;-0.20;80.96;97064.09;5065498;28;20415;-67
2022/04/20 04:52:31;;;;;;;8.25;5.32;;;;;;;-0.13;80.47;97053.50;5075220;28;20075;-64
2022/04/20 04:55:05;;;;;;;7.40;4.95;;;;;;;-0.05;80.18;97060.53;5066795;28;20056;-65
2022/04/20 04:57:34;;;;;;;7.00;4.80;;;;;;;-0.07;80.00;97058.03;5081975;28;20048;-65
2022/04/20 05:00:02;;;;;;;7.80;5.40;;;;;;;-0.01;80.48;97053.81;5084531;28;20732;-65
2022/04/20 05:02:31;;;;;;;8.75;5.40;;;;;;;0.20;79.94;97060.94;5077696;28;20036;-65
2022/04/20 05:04:58;;;;;;;7.63;5.65;;;;;;;0.64;78.34;97067.00;5083854;28;20058;-65
2022/04/20 05:07:29;;;;;;;6.30;4.90;;;;;;;0.56;77.40;97060.97;5082967;28;20036;-65
2022/04/20 05:10:00;;;;;;;9.50;4.95;;;;;;;0.33;78.20;97062.06;5084551;28;20582;-65
2022/04/20 05:12:28;;;;;;;10.30;5.78;;;;;;;0.25;80.08;97060.34;5050193;28;20055;-65
2022/04/20 05:14:55;;;;;;;10.65;5.70;;;;;;;0.35;80.52;97060.84;5065975;28;20060;-65
2022/04/20 05:17:23;;;;;;;10.27;5.78;;;;;;;0.28;80.56;97069.78;5071371;28;20091;-65
2022/04/20 05:19:49;;;;;;;10.82;6.78;;;;;;;0.62;80.30;97071.69;5063238;28;20086;-65
2022/04/20 05:22:23;;;;;;;8.30;6.07;;;;;;;0.71;79.40;97074.19;5070603;28;20101;-64
2022/04/20 05:24:50;;;;;;;8.02;5.97;;;;;;;1.06;78.15;97071.50;5082465;28;20541;-65
2022/04/20 05:27:18;;;;;;;8.50;5.65;;;;;;;1.18;77.32;97071.72;5070112;28;20056;-65
2022/04/20 05:30:01;;;;;;;9.15;5.82;;;;;;;1.16;77.80;97071.97;5061097;28;20111;-65
2022/04/20 05:32:28;;;;;;;11.07;6.00;;;;;;;0.96;79.13;97073.72;5061868;28;20433;-65
2022/04/20 05:35:02;;;;;;;10.02;5.25;;;;;;;1.25;78.77;97067.25;5073376;28;20064;-65
2022/04/20 05:43:07;;;;;;;7.63;4.70;;;;;;;2.18;75.54;97064.97;5069024;28;20048;-65
2022/04/20 05:45:35;;;;;;;8.77;5.40;;;;;;;2.64;72.96;97062.47;5079579;28;20389;-65
2022/04/20 05:48:15;;;;;;;6.65;4.90;;;;;;;2.67;73.05;97063.91;5073213;28;20052;-65
2022/04/20 05:50:43;;;;;;;8.50;5.35;;;;;;;2.77;73.52;97074.16;5082497;28;20078;-65
2022/04/20 05:53:10;;;;;;;9.75;4.88;;;;;;;3.02;71.80;97060.91;5081557;28;20044;-65
2022/04/20 05:55:36;;;;;;;8.60;4.40;;;;;;;3.26;70.34;97066.59;5062950;28;20037;-65
2022/04/20 05:58:03;;;;;;;12.60;5.05;;;;;;;3.49;69.01;97068.75;5070030;28;20575;-65
2022/04/20 06:00:31;;;;;;;6.95;4.03;;;;;;;3.76;68.13;97068.59;5061926;28;20411;-65
2022/04/20 06:03:26;;;;;;;6.78;4.65;;;;;;;3.88;67.33;97073.28;5063335;28;20165;-65
2022/04/20 06:06:04;;;;;;;5.95;3.65;;;;;;;3.96;67.50;97074.88;5079695;28;20059;-65
2022/04/20 06:08:44;;;;;;;7.25;4.18;;;;;;;4.08;67.24;97072.31;5082834;28;20068;-65
2022/04/20 06:11:43;;;;;;;9.80;4.82;;;;;;;4.20;66.35;97080.47;5060335;28;20059;-65
2022/04/20 06:14:14;;;;;;;6.35;4.32;;;;;;;4.29;65.69;97069.28;5082224;28;20043;-65
2022/04/20 06:16:46;;;;;;;5.60;4.25;;;;;;;4.41;65.33;97072.06;5070237;28;20055;-65
2022/04/20 06:19:19;;;;;;;5.63;3.85;;;;;;;4.53;64.74;97069.47;5065306;28;20135;-65
2022/04/20 06:21:59;;;;;;;9.25;5.05;;;;;;;4.63;64.53;97074.34;5064508;28;20055;-65
2022/04/20 06:24:52;;;;;;;6.57;4.10;;;;;;;4.74;64.00;97083.50;5064466;28;20063;-65
2022/04/20 06:27:35;;;;;;;6.15;3.88;;;;;;;4.85;63.48;97073.91;5063919;28;20481;-65
2022/04/20 06:30:17;;;;;;;;;;;;;;;4.95;62.94;97065.34;5065847;28;20127;-65
2022/04/20 06:33:10;;;;;;;7.63;3.85;;;;;;;5.03;62.85;97073.09;5063865;28;19920;-64
2022/04/20 06:35:55;;;;;;;6.22;3.85;;;;;;;5.10;61.81;97061.47;5065642;28;20137;-64
2022/04/20 06:38:35;;;;;;;5.93;4.15;;;;;;;5.23;61.57;97065.88;5064877;28;20139;-65
2022/04/20 06:41:29;;;;;;;8.63;4.10;;;;;;;5.19;61.44;97065.47;5063475;28;20052;-65
2022/04/20 06:44:14;;;;;;;7.50;4.65;;;;;;;5.32;61.02;97062.66;5066759;28;20067;-64
2022/04/20 06:46:49;;;;;;;6.50;4.38;;;;;;;5.36;60.75;97068.38;5063136;28;20048;-64
2022/04/20 06:49:36;;;;;;;6.22;4.03;;;;;;;5.46;60.59;97059.81;5014423;28;20571;-65
2022/04/20 07:00:44;;;;;;;6.03;3.47;;;;;;;5.97;58.75;97056.84;5064433;28;20048;-65
2022/04/20 07:03:20;;;;;;;5.28;3.63;;;;;;;6.05;57.65;97059.19;5061117;28;20068;-65
2022/04/20 07:06:09;;;;;;;5.72;3.55;;;;;;;6.15;57.42;97065.91;5062479;28;20071;-64
2022/04/20 07:08:56;;;;;;;6.72;4.30;;;;;;;6.29;57.79;97059.25;5054476;28;20135;-65
2022/04/20 07:11:30;;;;;;;7.15;3.30;;;;;;;6.29;56.59;97061.94;5063281;28;20553;-65
2022/04/20 07:13:57;;;;;;;5.80;3.15;;;;;;;6.20;56.10;97057.94;5065837;28;20554;-65
2022/04/20 07:16:23;;;;;;;5.97;3.47;;;;;;;6.21;55.59;97049.66;5063666;28;20439;-65
2022/04/20 07:19:04;;;;;;;6.45;3.83;;;;;;;6.26;56.06;97056.22;5064332;28;20408;-65
2022/04/20 07:21:39;;;;;;;6.35;3.25;;;;;;;6.34;55.40;97047.81;5063391;28;20110;-65
2022/04/20 07:24:38;;;;;;;8.40;3.88;;;;;;;6.45;55.36;97048.84;5053327;28;20510;-65
2022/04/20 07:27:04;;;;;;;6.82;3.63;;;;;;;6.47;55.73;97044.88;5062787;28;20071;-64
2022/04/20 07:29:56;;;;;;;6.88;3.65;;;;;;;6.58;55.17;97048.63;5070974;28;20040;-65
2022/04/20 07:32:41;;;;;;;6.07;3.65;;;;;;;6.82;54.35;97056.66;5064975;28;20094;-65
2022/04/20 07:35:18;;;;;;;5.38;3.53;;;;;;;6.82;54.90;97051.28;5062403;28;20048;-64
2022/04/20 07:38:06;;;;;;;5.88;3.00;;;;;;;6.86;54.83;97049.75;5070193;28;20048;-64
2022/04/20 07:40:51;;;;;;;6.00;3.65;;;;;;;6.96;53.68;97057.25;5061568;28;20439;-64
2022/04/20 07:43:38;;;;;;;8.52;3.35;;;;;;;7.01;54.42;97054.66;5067385;28;20048;-65
2022/04/20 07:46:25;;;;;;;6.60;3.33;;;;;;;7.12;53.34;97062.97;5069147;28;20071;-64
2022/04/20 07:50:18;;;;;;;4.43;2.70;;;;;;;7.19;51.29;97062.84;5055139;28;20056;-65
2022/04/20 07:52:11;;;;;;;5.40;3.17;;;;;;;7.28;51.59;97056.84;5056051;28;20128;-65
2022/04/20 07:55:00;;;;;;;8.02;3.47;;;;;;;7.27;52.01;97063.25;5065609;28;20831;-65
2022/04/20 07:57:44;;;;;;;6.10;3.53;;;;;;;7.36;51.56;97071.81;5067832;28;20521;-65
2022/04/20 08:00:24;;;;;;;5.15;3.10;;;;;;;7.38;49.97;97077.75;5064851;28;20053;-65
2022/04/20 08:03:16;;;;;;;5.70;2.92;;;;;;;7.39;48.09;97081.28;5062920;28;20574;-65
2022/04/20 08:05:49;;;;;;;5.25;3.10;;;;;;;7.41;48.88;97077.28;5059333;28;20082;-64
2022/04/20 08:08:19;;;;;;;4.80;2.95;;;;;;;7.52;49.20;97075.59;5066049;28;20041;-66
2022/04/20 08:10:45;;;;;;;5.22;3.05;;;;;;;7.64;48.78;97082.84;5072023;28;20048;-65
2022/04/20 08:15:59;;;;;;;3.67;2.13;;;;;;;7.67;47.33;97077.78;5057634;28;20052;-64
2022/04/20 08:18:34;;;;;;;4.97;2.47;;;;;;;7.76;47.09;97063.94;5085516;28;20051;-64
2022/04/20 08:21:23;;;;;;;4.78;2.60;;;;;;;7.84;48.26;97074.31;5085584;28;20084;-65
2022/04/20 08:23:49;;;;;;;7.05;2.92;;;;;;;7.83;48.20;97074.56;5073237;28;20071;-64
2022/04/20 08:26:16;;;;;;;4.82;2.97;;;;;;;7.86;48.22;97064.13;5074061;28;20046;-65
2022/04/20 08:28:43;;;;;;;4.38;2.90;;;;;;;8.04;49.16;97073.06;5065945;28;20041;-65
2022/04/20 08:31:09;;;;;;;8.40;3.40;;;;;;;7.99;48.34;97071.09;5086265;28;20065;-65
2022/04/20 08:33:36;;;;;;;6.10;3.13;;;;;;;8.16;48.77;97064.91;5079527;28;20044;-65
2022/04/20 08:36:02;;;;;;;4.65;3.05;;;;;;;8.14;49.32;97067.03;5072278;28;20048;-66
2022/04/20 08:38:29;;;;;;;6.00;3.55;;;;;;;8.19;48.80;97073.31;5072543;28;20755;-65
2022/04/20 08:40:59;;;;;;;4.07;2.85;;;;;;;8.45;48.57;97076.41;5077081;28;20056;-65
2022/04/20 08:43:29;;;;;;;5.30;3.40;;;;;;;8.36;48.66;97080.59;5081110;28;20051;-65
2022/04/20 08:45:59;;;;;;;5.88;3.60;;;;;;;8.48;48.74;97071.63;5085565;28;20048;-65
2022/04/20 08:48:25;;;;;;;5.63;3.08;;;;;;;8.56;49.64;97065.84;5075221;28;20052;-65
2022/04/20 08:50:56;;;;;;;5.00;3.50;;;;;;;8.67;48.90;97062.22;5084745;28;20281;-65
2022/04/20 08:53:23;;;;;;;5.30;3.60;;;;;;;8.70;49.22;97069.81;5084363;28;20123;-65
2022/04/20 08:57:15;;;;;;;6.93;3.47;;;;;;;8.74;48.21;97066.63;5083231;28;20523;-66
2022/04/20 08:58:39;;;;;;;4.90;2.90;;;;;;;8.86;46.77;97061.94;5085254;28;20051;-66
2022/04/20 09:01:07;;;;;;;6.28;3.25;;;;;;;8.95;46.93;97068.56;5084580;28;20048;-65
2022/04/20 09:03:35;;;;;;;7.80;3.65;;;;;;;8.95;48.15;97056.94;5062341;28;20082;-64
2022/04/20 09:06:03;;;;;;;5.15;3.58;;;;;;;8.81;48.01;97061.88;5069299;28;20524;-66
2022/04/20 09:08:29;;;;;;;7.53;3.17;;;;;;;8.88;46.21;97054.41;5067777;28;20037;-65
2022/04/20 09:10:57;;;;;;;4.65;3.00;;;;;;;8.96;46.20;97058.59;5065784;28;20047;-66
2022/04/20 09:13:33;;;;;;;4.93;2.95;;;;;;;8.98;45.82;97059.97;5084908;28;20050;-66
2022/04/20 09:16:06;;;;;;;7.28;3.08;;;;;;;9.03;44.48;97056.50;5084364;28;20581;-65
2022/04/20 09:18:33;;;;;;;5.47;2.92;;;;;;;9.12;43.24;97059.59;5085189;28;20048;-65
2022/04/20 09:21:07;;;;;;;5.15;3.00;;;;;;;9.13;43.94;97060.44;5084438;28;20052;-66
2022/04/20 09:23:34;;;;;;;5.47;3.05;;;;;;;9.01;42.74;97052.41;5085181;28;20048;-66
2022/04/20 09:26:27;;;;;;;5.45;2.95;;;;;;;9.01;43.10;97064.03;5085292;28;20036;-66
2022/04/20 09:29:07;;;;;;;5.47;2.83;;;;;;;8.95;42.68;97054.22;5053734;28;20068;-65
2022/04/20 09:31:41;;;;;;;5.28;2.83;;;;;;;9.23;43.41;97049.75;5065502;28;20373;-65
2022/04/20 09:34:08;;;;;;;7.75;2.90;;;;;;;9.32;43.37;97056.34;5085028;28;20075;-65
2022/04/20 09:36:45;;;;;;;5.57;3.35;;;;;;;9.38;43.65;97049.09;5072489;28;20058;-65
2022/04/20 09:39:13;;;;;;;5.20;2.35;;;;;;;9.47;41.95;97052.19;5075281;28;20119;-65
2022/04/20 09:41:55;;;;;;;5.95;3.10;;;;;;;9.28;43.09;97052.50;5080793;28;20055;-65
2022/04/20 09:44:22;;;;;;;5.25;3.35;;;;;;;9.30;43.65;97052.25;5085500;28;20058;-65
2022/04/20 09:49:56;;;;;;;4.78;2.90;;;;;;;9.62;42.16;97051.56;5046117;28;20127;-65
2022/04/20 09:52:44;;;;;;;6.47;3.10;;;;;;;9.61;41.07;97049.91;5065173;28;20075;-65
2022/04/20 09:55:13;;;;;;;4.38;2.72;;;;;;;9.64;42.19;97038.59;5081311;28;20278;-63
2022/04/20 09:57:41;;;;;;;6.50;3.10;;;;;;;9.63;42.65;97039.66;5069761;28;20477;-64
2022/04/20 10:00:09;;;;;;;6.35;3.00;;;;;;;9.78;42.74;97030.88;5073730;28;20393;-67
2022/04/20 10:02:52;;;;;;;5.35;3.00;;;;;;;9.80;43.02;97042.25;5078643;28;20105;-66
2022/04/20 10:05:22;;;;;;;7.03;2.95;;;;;;;9.99;41.98;97031.88;5079007;28;20055;-66
2022/04/20 10:07:58;;;;;;;5.67;3.17;;;;;;;9.85;42.26;97034.19;5061444;28;20503;-66
2022/04/20 10:10:28;;;;;;;7.80;3.10;;;;;;;10.14;40.53;97023.09;5081825;28;20048;-66
2022/04/20 10:12:56;;;;;;;5.80;3.28;;;;;;;9.96;41.88;97021.59;5084882;28;20672;-66
2022/04/20 10:18:16;;;;;;;7.30;3.33;;;;;;;10.25;41.73;97021.28;5075763;28;20460;-66
2022/04/20 10:20:46;;;;;;;4.80;2.97;;;;;;;10.19;40.81;97022.34;5083831;28;20040;-65
2022/04/20 10:23:17;;;;;;;5.53;2.50;;;;;;;10.25;39.99;97021.28;5060143;28;20058;-65
2022/04/20 10:25:44;;;;;;;4.85;2.78;;;;;;;10.42;39.54;97031.16;5073273;28;20051;-66
2022/04/20 10:28:14;;;;;;;6.65;2.85;;;;;;;10.19;38.29;97025.03;5075090;28;20102;-65
2022/04/20 10:31:33;;;;;;;7.57;2.70;;;;;;;10.37;39.33;97012.19;5063476;28;20040;-66
2022/04/20 10:34:04;;;;;;;6.57;2.90;;;;;;;10.45;37.64;97014.44;4963813;28;20151;-65
2022/04/20 10:36:59;;;;;;;4.88;2.58;;;;;;;10.37;38.51;97013.00;5063502;28;20446;-65
2022/04/20 10:39:34;;;;;;;4.80;2.78;;;;;;;10.26;38.71;96995.88;5081524;28;20123;-66
2022/04/20 10:42:11;;;;;;;5.32;3.08;;;;;;;10.34;39.75;96997.28;5081577;28;20044;-66
2022/04/20 10:44:55;;;;;;;3.60;2.60;;;;;;;10.46;39.54;97001.72;5083780;28;20790;-65
2022/04/20 10:47:42;;;;;;;5.38;3.42;;;;;;;10.25;39.93;96990.72;5078423;28;20052;-66
2022/04/20 10:50:16;;;;;;;6.38;3.10;;;;;;;10.36;40.10;96992.41;5083565;28;20036;-64
2022/04/20 10:52:59;;;;;;;5.45;2.70;;;;;;;10.70;39.85;96988.59;5074627;28;20056;-66
2022/04/20 10:55:35;;;;;;;4.32;2.38;;;;;;;10.83;37.82;96994.63;5067930;28;20113;-66
2022/04/20 10:58:04;;;;;;;4.65;2.78;;;;;;;10.93;37.18;96992.78;5050811;28;20048;-66
2022/04/20 11:00:37;;;;;;;4.75;2.90;;;;;;;10.79;37.95;96992.44;5076440;28;20040;-66
2022/04/20 11:03:04;;;;;;;3.70;2.08;;;;;;;11.11;37.14;96982.56;5066306;28;20430;-66
2022/04/20 11:05:31;;;;;;;4.45;2.85;;;;;;;11.08;38.15;96982.25;5080338;28;20105;-66
2022/04/20 11:08:01;;;;;;;7.47;3.15;;;;;;;11.47;37.69;96981.88;5070869;28;20036;-66
2022/04/20 11:10:28;;;;;;;3.97;2.42;;;;;;;11.28;37.32;96971.50;5082557;28;20043;-66
2022/04/20 11:19:12;;;;;;;4.28;2.40;;;;;;;11.63;36.87;96969.16;5068934;28;20059;-64
2022/04/20 11:22:05;;;;;;;6.20;2.45;;;;;;;11.89;35.69;96979.22;5080786;28;20135;-66
2022/04/20 11:24:38;;;;;;;4.40;2.40;;;;;;;11.68;36.47;96969.16;5083116;28;20044;-66
2022/04/20 11:27:06;;;;;;;5.22;2.53;;;;;;;11.66;35.88;96965.09;5062649;28;20040;-66
2022/04/20 11:29:33;;;;;;;4.97;2.50;;;;;;;11.51;35.71;96969.41;5072076;28;20121;-66
2022/04/20 11:32:00;;;;;;;8.45;2.47;;;;;;;11.52;35.24;96960.19;5056107;28;20075;-66
2022/04/20 11:34:35;;;;;;;4.75;1.95;;;;;;;11.69;35.97;96959.94;5069337;28;20135;-66
2022/04/20 11:37:06;;;;;;;4.68;2.33;;;;;;;11.52;35.31;96970.22;5062121;28;20055;-66
2022/04/20 11:39:34;;;;;;;5.47;2.63;;;;;;;11.67;34.65;96958.56;5064282;28;20051;-66
2022/04/20 11:42:03;;;;;;;4.68;2.40;;;;;;;11.76;35.17;96956.94;5082265;28;20043;-66
2022/04/20 11:44:39;;;;;;;3.58;2.10;;;;;;;12.02;34.45;96954.25;5066489;28;20051;-66
2022/04/20 11:47:11;;;;;;;5.95;2.92;;;;;;;12.04;34.83;96959.41;5070589;28;20043;-67
2022/04/20 11:49:40;;;;;;;6.00;2.20;;;;;;;11.84;33.96;96961.03;5081460;28;20315;-66
2022/04/20 11:52:11;;;;;;;7.05;2.35;;;;;;;11.87;33.97;96951.53;5074470;28;20047;-66
2022/04/20 11:54:40;;;;;;;5.65;2.00;;;;;;;12.12;34.15;96948.03;5047393;28;20122;-66
2022/04/20 11:57:10;;;;;;;4.90;2.40;;;;;;;11.97;34.17;96938.81;5061215;28;20201;-66
2022/04/20 11:59:47;;;;;;;5.47;2.33;;;;;;;12.23;34.09;96948.84;5082567;28;20032;-67
2022/04/20 12:02:16;;;;;;;5.78;2.67;;;;;;;12.05;33.57;96945.59;5060513;28;20044;-67
2022/04/20 12:04:44;;;;;;;4.95;2.65;;;;;;;12.18;33.66;96938.81;5071357;28;20048;-66
2022/04/20 12:07:14;;;;;;;4.30;2.45;;;;;;;11.97;33.88;96935.25;5077906;28;20055;-66
2022/04/20 12:09:45;;;;;;;5.82;2.40;;;;;;;12.49;34.47;96932.50;5051183;28;20033;-67
2022/04/20 12:12:13;;;;;;;4.20;2.13;;;;;;;12.88;33.41;96929.16;5080249;28;20122;-66
2022/04/20 12:14:43;;;;;;;4.40;2.28;;;;;;;12.92;33.16;96926.69;5082674;28;20055;-64
2022/04/20 12:17:14;;;;;;;5.20;2.70;;;;;;;12.80;32.50;96926.19;5081348;28;20036;-64
2022/04/20 12:19:44;;;;;;;5.47;2.55;;;;;;;12.82;33.07;96930.25;5080976;28;20539;-66
2022/04/20 12:22:12;;;;;;;5.25;2.42;;;;;;;12.74;32.44;96925.38;5075776;28;20047;-66
2022/04/20 12:24:43;;;;;;;5.43;2.22;;;;;;;13.11;32.10;96928.75;5081132;28;20507;-67
2022/04/20 12:27:21;;;;;;;5.10;2.38;;;;;;;13.34;31.11;96919.13;5085164;28;20056;-67
2022/04/20 12:29:54;;;;;;;7.18;2.55;;;;;;;13.33;31.54;96912.06;5084306;28;20617;-64
2022/04/20 12:32:41;;;;;;;5.70;2.60;;;;;;;13.88;31.58;96922.03;5084730;28;20478;-67
2022/04/20 12:35:08;;;;;;;4.22;2.42;;;;;;;13.93;31.09;96918.44;5072215;28;20094;-66
2022/04/20 12:37:52;;;;;;;5.70;2.65;;;;;;;13.81;31.52;96915.31;5077130;28;20055;-64
2022/04/20 12:40:27;;;;;;;4.65;2.83;;;;;;;13.30;32.71;96914.53;5084958;28;20501;-64
2022/04/20 12:43:09;;;;;;;5.13;2.90;;;;;;;13.55;32.38;96910.84;5084409;28;20048;-67
2022/04/20 12:45:42;;;;;;;6.28;3.13;;;;;;;13.84;31.77;96910.09;5073428;28;20043;-65